createdAt,value
2018-03-08T00:00:12.919Z,992.99
2018-03-08T00:01:12.939Z,992.98
2018-03-08T00:02:12.950Z,993.02
2018-03-08T00:03:12.958Z,993.04
2018-03-08T00:04:12.968Z,993.05
2018-03-08T00:05:12.985Z,993.01
2018-03-08T00:06:12.993Z,992.99
2018-03-08T00:07:13.003Z,993.06
2018-03-08T00:08:13.020Z,993.00
2018-03-08T00:09:13.044Z,993.03
2018-03-08T00:10:13.056Z,993.04
2018-03-08T00:11:13.053Z,993.10
2018-03-08T00:12:13.063Z,993.06
2018-03-08T00:13:13.100Z,993.02
2018-03-08T00:14:13.089Z,993.03
2018-03-08T00:15:13.101Z,993.13
2018-03-08T00:16:13.112Z,993.09
2018-03-08T00:17:13.124Z,993.08
2018-03-08T00:18:13.135Z,993.09
2018-03-08T00:19:13.199Z,993.08
2018-03-08T00:20:13.159Z,993.11
2018-03-08T00:21:13.194Z,993.07
2018-03-08T00:22:13.187Z,993.16
2018-03-08T00:23:13.208Z,993.09
2018-03-08T00:24:13.206Z,993.13
2018-03-08T00:25:13.218Z,993.20
2018-03-08T00:26:13.227Z,993.11
2018-03-08T00:27:13.244Z,993.16
2018-03-08T00:28:13.253Z,993.16
2018-03-08T00:29:13.270Z,993.18
2018-03-08T00:30:13.277Z,993.27
2018-03-08T00:31:13.304Z,993.19
2018-03-08T00:32:13.305Z,993.23
2018-03-08T00:33:13.313Z,993.27
2018-03-08T00:34:13.320Z,993.29
2018-03-08T00:35:13.336Z,993.34
2018-03-08T00:36:13.352Z,993.33
2018-03-08T00:37:13.360Z,993.35
2018-03-08T00:38:13.375Z,993.31
2018-03-08T00:39:13.384Z,993.34
2018-03-08T00:40:13.402Z,993.35
2018-03-08T00:41:13.404Z,993.37
2018-03-08T00:42:13.416Z,993.42
2018-03-08T00:43:13.432Z,993.45
2018-03-08T00:44:13.441Z,993.45
2018-03-08T00:45:13.452Z,993.46
2018-03-08T00:46:13.460Z,993.44
2018-03-08T00:47:13.472Z,993.44
2018-03-08T00:48:13.485Z,993.46
2018-03-08T00:49:13.498Z,993.47
2018-03-08T00:50:13.509Z,993.47
2018-03-08T00:51:13.522Z,993.53
2018-03-08T00:52:13.531Z,993.46
2018-03-08T00:53:13.568Z,993.54
2018-03-08T00:54:13.575Z,993.51
2018-03-08T00:55:13.567Z,993.51
2018-03-08T00:56:13.580Z,993.53
2018-03-08T00:57:13.592Z,993.54
2018-03-08T00:58:13.623Z,993.56
2018-03-08T00:59:13.622Z,993.56
2018-03-08T01:00:13.624Z,993.52
2018-03-08T01:01:13.736Z,993.59
2018-03-08T01:02:13.650Z,993.57
2018-03-08T01:03:13.662Z,993.59
2018-03-08T01:04:13.669Z,993.59
2018-03-08T01:05:13.680Z,993.61
2018-03-08T01:06:13.709Z,993.64
2018-03-08T01:07:13.704Z,993.58
2018-03-08T01:08:13.773Z,993.63
2018-03-08T01:09:13.803Z,993.65
2018-03-08T01:10:13.739Z,993.65
2018-03-08T01:11:13.753Z,993.60
2018-03-08T01:12:13.770Z,993.63
2018-03-08T01:13:13.784Z,993.64
2018-03-08T01:14:13.788Z,993.62
2018-03-08T01:15:13.832Z,993.66
2018-03-08T01:16:13.892Z,993.64
2018-03-08T01:17:13.830Z,993.67
2018-03-08T01:18:13.837Z,993.70
2018-03-08T01:19:13.855Z,993.71
2018-03-08T01:20:13.856Z,993.71
2018-03-08T01:21:13.866Z,993.75
2018-03-08T01:22:13.877Z,993.69
2018-03-08T01:23:13.891Z,993.72
2018-03-08T01:24:13.898Z,993.68
2018-03-08T01:25:13.912Z,993.77
2018-03-08T01:26:13.931Z,993.71
2018-03-08T01:27:13.962Z,993.74
2018-03-08T01:28:13.997Z,993.75
2018-03-08T01:29:13.957Z,993.77
2018-03-08T01:30:13.971Z,993.76
2018-03-08T01:31:14.006Z,993.81
2018-03-08T01:32:13.993Z,993.82
2018-03-08T01:33:14.011Z,993.85
2018-03-08T01:34:14.017Z,993.83
2018-03-08T01:35:14.024Z,993.85
2018-03-08T01:36:14.040Z,993.83
2018-03-08T01:37:14.049Z,993.87
2018-03-08T01:38:14.056Z,993.90
2018-03-08T01:40:14.449Z,993.97
2018-03-08T01:41:14.089Z,993.93
2018-03-08T01:42:14.101Z,993.90
2018-03-08T01:43:14.126Z,993.94
2018-03-08T01:44:14.187Z,994.03
2018-03-08T01:45:14.171Z,993.95
2018-03-08T01:46:14.148Z,993.99
2018-03-08T01:47:14.160Z,994.00
2018-03-08T01:48:14.198Z,994.06
2018-03-08T01:49:14.185Z,994.02
2018-03-08T01:50:14.196Z,994.06
2018-03-08T01:51:14.207Z,994.09
2018-03-08T01:52:14.220Z,994.07
2018-03-08T01:53:14.233Z,994.06
2018-03-08T01:54:14.244Z,994.11
2018-03-08T01:55:14.255Z,994.14
2018-03-08T01:56:14.265Z,994.08
2018-03-08T01:57:14.280Z,994.06
2018-03-08T01:58:14.297Z,994.09
2018-03-08T01:59:14.310Z,994.06
2018-03-08T02:00:14.312Z,994.05
2018-03-08T02:01:14.325Z,994.10
2018-03-08T02:02:14.336Z,994.11
2018-03-08T02:03:14.350Z,994.10
2018-03-08T02:04:14.359Z,994.14
2018-03-08T02:05:14.373Z,994.11
2018-03-08T02:06:14.382Z,994.11
2018-03-08T02:07:14.396Z,994.12
2018-03-08T02:08:14.411Z,994.18
2018-03-08T02:09:14.416Z,994.20
2018-03-08T02:10:14.429Z,994.15
2018-03-08T02:11:14.444Z,994.21
2018-03-08T02:12:14.453Z,994.19
2018-03-08T02:13:14.500Z,994.19
2018-03-08T02:14:14.476Z,994.21
2018-03-08T02:15:14.493Z,994.21
2018-03-08T02:16:14.504Z,994.20
2018-03-08T02:17:14.514Z,994.25
2018-03-08T02:18:14.528Z,994.27
2018-03-08T02:19:14.536Z,994.27
2018-03-08T02:20:14.548Z,994.26
2018-03-08T02:21:14.558Z,994.26
2018-03-08T02:22:14.576Z,994.27
2018-03-08T02:23:14.599Z,994.32
2018-03-08T02:24:14.611Z,994.26
2018-03-08T02:25:14.607Z,994.34
2018-03-08T02:26:14.617Z,994.33
2018-03-08T02:27:14.629Z,994.31
2018-03-08T02:28:14.647Z,994.30
2018-03-08T02:29:14.656Z,994.35
2018-03-08T02:30:14.715Z,994.37
2018-03-08T02:31:14.681Z,994.36
2018-03-08T02:32:14.692Z,994.39
2018-03-08T02:33:14.703Z,994.41
2018-03-08T02:34:14.712Z,994.42
2018-03-08T02:35:14.722Z,994.39
2018-03-08T02:36:14.734Z,994.43
2018-03-08T02:37:14.748Z,994.38
2018-03-08T02:38:14.759Z,994.41
2018-03-08T02:39:14.772Z,994.44
2018-03-08T02:40:14.782Z,994.40
2018-03-08T02:41:14.795Z,994.46
2018-03-08T02:42:14.807Z,994.42
2018-03-08T02:43:14.832Z,994.44
2018-03-08T02:44:14.830Z,994.41
2018-03-08T02:45:14.846Z,994.44
2018-03-08T02:46:14.854Z,994.43
2018-03-08T02:47:14.864Z,994.48
2018-03-08T02:48:14.877Z,994.46
2018-03-08T02:49:14.888Z,994.47
2018-03-08T02:50:14.901Z,994.48
2018-03-08T02:51:14.914Z,994.48
2018-03-08T02:52:14.940Z,994.51
2018-03-08T02:53:14.934Z,994.47
2018-03-08T02:54:14.948Z,994.50
2018-03-08T02:55:14.957Z,994.48
2018-03-08T02:56:14.977Z,994.49
2018-03-08T02:57:14.983Z,994.48
2018-03-08T02:58:14.998Z,994.51
2018-03-08T02:59:15.009Z,994.52
2018-03-08T03:00:15.019Z,994.48
2018-03-08T03:01:15.031Z,994.52
2018-03-08T03:02:15.054Z,994.49
2018-03-08T03:03:15.053Z,994.53
2018-03-08T03:04:15.071Z,994.55
2018-03-08T03:05:15.082Z,994.56
2018-03-08T03:06:15.090Z,994.57
2018-03-08T03:07:15.108Z,994.58
2018-03-08T03:08:15.112Z,994.57
2018-03-08T03:09:15.135Z,994.64
2018-03-08T03:10:15.137Z,994.60
2018-03-08T03:11:15.149Z,994.58
2018-03-08T03:12:15.161Z,994.63
2018-03-08T03:13:15.173Z,994.63
2018-03-08T03:14:15.185Z,994.63
2018-03-08T03:15:15.200Z,994.64
2018-03-08T03:16:15.218Z,994.66
2018-03-08T03:17:15.220Z,994.66
2018-03-08T03:18:15.232Z,994.68
2018-03-08T03:19:15.344Z,994.70
2018-03-08T03:20:15.281Z,994.68
2018-03-08T03:21:15.267Z,994.66
2018-03-08T03:22:15.280Z,994.69
2018-03-08T03:23:15.293Z,994.68
2018-03-08T03:24:15.307Z,994.69
2018-03-08T03:25:15.319Z,994.67
2018-03-08T03:26:15.340Z,994.70
2018-03-08T03:27:15.350Z,994.65
2018-03-08T03:28:15.357Z,994.72
2018-03-08T03:29:15.371Z,994.71
2018-03-08T03:30:15.385Z,994.67
2018-03-08T03:31:15.391Z,994.74
2018-03-08T03:32:15.402Z,994.67
2018-03-08T03:33:15.436Z,994.73
2018-03-08T03:34:15.426Z,994.70
2018-03-08T03:35:15.439Z,994.73
2018-03-08T03:36:15.447Z,994.74
2018-03-08T03:37:15.463Z,994.69
2018-03-08T03:38:15.474Z,994.71
2018-03-08T03:39:15.501Z,994.75
2018-03-08T03:40:15.497Z,994.69
2018-03-08T03:41:15.508Z,994.74
2018-03-08T03:42:15.526Z,994.74
2018-03-08T03:43:15.533Z,994.80
2018-03-08T03:44:15.548Z,994.74
2018-03-08T03:45:15.566Z,994.78
2018-03-08T03:46:15.568Z,994.78
2018-03-08T03:47:15.582Z,994.78
2018-03-08T03:48:15.596Z,994.80
2018-03-08T03:49:15.608Z,994.81
2018-03-08T03:50:15.620Z,994.81
2018-03-08T03:51:15.631Z,994.80
2018-03-08T03:52:15.649Z,994.83
2018-03-08T03:53:15.653Z,994.84
2018-03-08T03:54:15.667Z,994.79
2018-03-08T03:55:15.679Z,994.82
2018-03-08T03:56:15.690Z,994.79
2018-03-08T03:57:15.706Z,994.81
2018-03-08T03:58:15.714Z,994.85
2018-03-08T03:59:15.729Z,994.84
2018-03-08T04:00:15.742Z,994.85
2018-03-08T04:01:15.750Z,994.85
2018-03-08T04:02:15.764Z,994.84
2018-03-08T04:03:15.779Z,994.83
2018-03-08T04:04:15.788Z,994.87
2018-03-08T04:05:15.834Z,994.82
2018-03-08T04:06:15.849Z,994.85
2018-03-08T04:07:15.824Z,994.90
2018-03-08T04:08:15.845Z,994.86
2018-03-08T04:09:15.849Z,994.87
2018-03-08T04:10:15.865Z,994.93
2018-03-08T04:11:15.873Z,994.93
2018-03-08T04:12:15.904Z,994.94
2018-03-08T04:13:15.895Z,994.97
2018-03-08T04:14:15.908Z,994.97
2018-03-08T04:15:15.921Z,994.97
2018-03-08T04:16:15.932Z,994.93
2018-03-08T04:17:15.944Z,994.98
2018-03-08T04:18:15.959Z,995.03
2018-03-08T04:19:15.967Z,995.02
2018-03-08T04:20:15.983Z,995.01
2018-03-08T04:21:15.991Z,994.98
2018-03-08T04:22:16.009Z,995.01
2018-03-08T04:23:16.017Z,994.96
2018-03-08T04:24:16.028Z,995.00
2018-03-08T04:25:16.041Z,995.00
2018-03-08T04:26:16.053Z,994.98
2018-03-08T04:27:16.066Z,995.01
2018-03-08T04:28:16.076Z,994.99
2018-03-08T04:29:16.090Z,995.02
2018-03-08T04:30:16.104Z,995.04
2018-03-08T04:31:16.112Z,995.07
2018-03-08T04:32:16.128Z,995.04
2018-03-08T04:33:16.137Z,995.05
2018-03-08T04:34:16.162Z,995.05
2018-03-08T04:35:16.162Z,995.09
2018-03-08T04:36:16.177Z,995.11
2018-03-08T04:37:16.185Z,995.08
2018-03-08T04:38:16.206Z,995.09
2018-03-08T04:39:16.266Z,995.08
2018-03-08T04:40:16.219Z,995.07
2018-03-08T04:41:16.235Z,995.12
2018-03-08T04:42:16.251Z,995.15
2018-03-08T04:43:16.259Z,995.10
2018-03-08T04:44:16.269Z,995.13
2018-03-08T04:45:16.283Z,995.11
2018-03-08T04:46:16.292Z,995.12
2018-03-08T04:47:16.312Z,995.13
2018-03-08T04:48:16.321Z,995.15
2018-03-08T04:49:16.332Z,995.16
2018-03-08T04:50:16.339Z,995.17
2018-03-08T04:51:16.352Z,995.20
2018-03-08T04:52:16.369Z,995.21
2018-03-08T04:53:16.382Z,995.31
2018-03-08T04:54:16.428Z,995.29
2018-03-08T04:55:16.402Z,995.27
2018-03-08T04:56:16.418Z,995.24
2018-03-08T04:57:16.424Z,995.28
2018-03-08T04:58:16.437Z,995.24
2018-03-08T04:59:16.448Z,995.28
2018-03-08T05:00:16.461Z,995.27
2018-03-08T05:01:16.488Z,995.30
2018-03-08T05:02:16.485Z,995.34
2018-03-08T05:03:16.503Z,995.30
2018-03-08T05:04:16.511Z,995.31
2018-03-08T05:05:16.527Z,995.40
2018-03-08T05:06:16.533Z,995.37
2018-03-08T05:07:16.543Z,995.35
2018-03-08T05:08:16.561Z,995.43
2018-03-08T05:09:16.569Z,995.44
2018-03-08T05:10:16.592Z,995.45
2018-03-08T05:11:16.592Z,995.47
2018-03-08T05:12:16.640Z,995.47
2018-03-08T05:13:16.617Z,995.44
2018-03-08T05:14:16.636Z,995.48
2018-03-08T05:15:16.642Z,995.43
2018-03-08T05:16:16.656Z,995.44
2018-03-08T05:17:16.667Z,995.48
2018-03-08T05:18:16.677Z,995.43
2018-03-08T05:19:16.689Z,995.42
2018-03-08T05:20:16.700Z,995.46
2018-03-08T05:21:16.713Z,995.41
2018-03-08T05:22:16.729Z,995.39
2018-03-08T05:23:16.744Z,995.38
2018-03-08T05:24:16.750Z,995.35
2018-03-08T05:25:16.776Z,995.39
2018-03-08T05:26:16.774Z,995.37
2018-03-08T05:27:16.786Z,995.44
2018-03-08T05:28:16.815Z,995.40
2018-03-08T05:29:16.813Z,995.40
2018-03-08T05:30:16.822Z,995.45
2018-03-08T05:31:16.836Z,995.42
2018-03-08T05:32:16.847Z,995.36
2018-03-08T05:33:16.859Z,995.37
2018-03-08T05:34:16.871Z,995.36
2018-03-08T05:35:16.892Z,995.40
2018-03-08T05:36:16.894Z,995.44
2018-03-08T05:37:16.906Z,995.41
2018-03-08T05:38:16.938Z,995.41
2018-03-08T05:39:17.085Z,995.43
2018-03-08T05:40:16.944Z,995.44
2018-03-08T05:41:16.958Z,995.45
2018-03-08T05:42:16.970Z,995.41
2018-03-08T05:43:16.989Z,995.48
2018-03-08T05:44:17.000Z,995.45
2018-03-08T05:45:17.028Z,995.46
2018-03-08T05:46:17.022Z,995.45
2018-03-08T05:47:17.036Z,995.47
2018-03-08T05:48:17.049Z,995.50
2018-03-08T05:49:17.057Z,995.48
2018-03-08T05:50:17.066Z,995.53
2018-03-08T05:51:17.079Z,995.54
2018-03-08T05:52:17.095Z,995.57
2018-03-08T05:53:17.102Z,995.55
2018-03-08T05:54:17.122Z,995.58
2018-03-08T05:55:17.148Z,995.62
2018-03-08T05:56:17.141Z,995.61
2018-03-08T05:57:17.154Z,995.64
2018-03-08T05:58:17.172Z,995.66
2018-03-08T05:59:17.185Z,995.65
2018-03-08T06:00:17.193Z,995.67
2018-03-08T06:01:17.205Z,995.64
2018-03-08T06:02:17.213Z,995.66
2018-03-08T06:03:17.228Z,995.71
2018-03-08T06:04:17.245Z,995.70
2018-03-08T06:05:17.255Z,995.73
2018-03-08T06:06:17.264Z,995.74
2018-03-08T06:07:17.287Z,995.81
2018-03-08T06:08:17.300Z,995.87
2018-03-08T06:09:17.300Z,995.86
2018-03-08T06:10:17.330Z,995.86
2018-03-08T06:11:17.327Z,995.90
2018-03-08T06:12:17.341Z,995.88
2018-03-08T06:13:17.360Z,995.90
2018-03-08T06:14:17.365Z,995.89
2018-03-08T06:15:17.375Z,995.90
2018-03-08T06:16:17.387Z,995.94
2018-03-08T06:17:17.400Z,995.94
2018-03-08T06:18:17.417Z,995.97
2018-03-08T06:19:17.429Z,995.92
2018-03-08T06:20:17.435Z,995.98
2018-03-08T06:21:17.460Z,995.96
2018-03-08T06:22:17.465Z,995.89
2018-03-08T06:23:17.474Z,995.90
2018-03-08T06:24:17.487Z,995.94
2018-03-08T06:25:17.500Z,996.00
2018-03-08T06:26:17.562Z,995.97
2018-03-08T06:27:17.525Z,995.99
2018-03-08T06:28:17.535Z,996.02
2018-03-08T06:29:17.557Z,996.02
2018-03-08T06:30:17.579Z,996.01
2018-03-08T06:31:17.572Z,996.10
2018-03-08T06:32:17.586Z,996.03
2018-03-08T06:33:17.594Z,996.05
2018-03-08T06:34:17.622Z,996.02
2018-03-08T06:35:17.633Z,996.09
2018-03-08T06:36:17.635Z,996.08
2018-03-08T06:37:17.649Z,996.07
2018-03-08T06:38:17.659Z,996.06
2018-03-08T06:39:17.681Z,996.04
2018-03-08T06:40:17.688Z,996.03
2018-03-08T06:41:17.696Z,996.07
2018-03-08T06:42:17.712Z,996.07
2018-03-08T06:43:17.720Z,996.09
2018-03-08T06:44:17.733Z,996.04
2018-03-08T06:45:17.750Z,996.04
2018-03-08T06:46:17.760Z,996.00
2018-03-08T06:47:17.789Z,995.98
2018-03-08T06:48:17.804Z,995.98
2018-03-08T06:49:17.795Z,996.00
2018-03-08T06:50:17.815Z,996.03
2018-03-08T06:51:17.830Z,996.00
2018-03-08T06:52:17.831Z,996.05
2018-03-08T06:53:17.847Z,996.03
2018-03-08T06:54:17.865Z,995.99
2018-03-08T06:55:18.178Z,996.07
2018-03-08T06:56:17.883Z,996.08
2018-03-08T06:57:17.899Z,996.11
2018-03-08T06:58:17.912Z,996.11
2018-03-08T06:59:17.922Z,996.11
2018-03-08T07:00:17.932Z,996.09
2018-03-08T07:01:17.961Z,996.12
2018-03-08T07:02:17.959Z,996.14
2018-03-08T07:03:17.978Z,996.15
2018-03-08T07:04:17.986Z,996.15
2018-03-08T07:05:17.997Z,996.15
2018-03-08T07:06:18.013Z,996.16
2018-03-08T07:07:18.020Z,996.15
2018-03-08T07:08:18.033Z,996.20
2018-03-08T07:09:18.045Z,996.17
2018-03-08T07:10:18.055Z,996.20
2018-03-08T07:11:18.069Z,996.21
2018-03-08T07:12:18.125Z,996.22
2018-03-08T07:13:18.093Z,996.26
2018-03-08T07:14:18.113Z,996.23
2018-03-08T07:15:18.121Z,996.25
2018-03-08T07:16:18.128Z,996.23
2018-03-08T07:17:18.142Z,996.19
2018-03-08T07:18:18.161Z,996.21
2018-03-08T07:19:18.168Z,996.22
2018-03-08T07:20:18.178Z,996.23
2018-03-08T07:21:18.190Z,996.20
2018-03-08T07:22:18.210Z,996.18
2018-03-08T07:23:18.222Z,996.16
2018-03-08T07:24:18.230Z,996.22
2018-03-08T07:25:18.253Z,996.28
2018-03-08T07:26:18.255Z,996.26
2018-03-08T07:27:18.266Z,996.22
2018-03-08T07:28:18.281Z,996.21
2018-03-08T07:29:18.290Z,996.19
2018-03-08T07:30:18.301Z,996.20
2018-03-08T07:31:18.312Z,996.18
2018-03-08T07:32:18.330Z,996.21
2018-03-08T07:33:18.339Z,996.22
2018-03-08T07:34:18.349Z,996.22
2018-03-08T07:35:18.365Z,996.20
2018-03-08T07:36:18.380Z,996.23
2018-03-08T07:37:18.400Z,996.22
2018-03-08T07:38:18.400Z,996.20
2018-03-08T07:39:18.413Z,996.26
2018-03-08T07:40:18.425Z,996.22
2018-03-08T07:41:18.439Z,996.20
2018-03-08T07:42:18.451Z,996.22
2018-03-08T07:43:18.465Z,996.21
2018-03-08T07:44:18.471Z,996.23
2018-03-08T07:45:18.502Z,996.24
2018-03-08T07:46:18.499Z,996.27
2018-03-08T07:47:18.512Z,996.17
2018-03-08T07:48:18.522Z,996.20
2018-03-08T07:49:18.536Z,996.19
2018-03-08T07:50:18.550Z,996.18
2018-03-08T07:51:18.570Z,996.11
2018-03-08T07:52:18.570Z,996.17
2018-03-08T07:53:18.590Z,996.17
2018-03-08T07:54:18.599Z,996.11
2018-03-08T07:55:18.614Z,996.17
2018-03-08T07:56:18.635Z,996.14
2018-03-08T07:57:18.638Z,996.14
2018-03-08T07:58:18.638Z,996.14
2018-03-08T07:59:18.653Z,996.19
2018-03-08T08:00:18.694Z,996.16
2018-03-08T08:01:18.677Z,996.11
2018-03-08T08:02:18.688Z,996.14
2018-03-08T08:03:18.703Z,996.14
2018-03-08T08:04:18.714Z,996.07
2018-03-08T08:05:18.725Z,996.10
2018-03-08T08:06:18.740Z,996.18
2018-03-08T08:07:18.750Z,996.17
2018-03-08T08:08:18.761Z,996.13
2018-03-08T08:09:18.777Z,996.10
2018-03-08T08:10:18.790Z,996.09
2018-03-08T08:11:18.823Z,996.09
2018-03-08T08:12:18.827Z,996.07
2018-03-08T08:13:18.826Z,996.06
2018-03-08T08:14:18.840Z,996.03
2018-03-08T08:15:18.850Z,995.97
2018-03-08T08:16:18.891Z,995.97
2018-03-08T08:17:18.879Z,995.97
2018-03-08T08:18:18.892Z,995.99
2018-03-08T08:19:18.900Z,995.97
2018-03-08T08:20:18.914Z,995.94
2018-03-08T08:21:18.929Z,995.90
2018-03-08T08:22:18.940Z,995.97
2018-03-08T08:23:18.953Z,995.98
2018-03-08T08:24:18.964Z,995.96
2018-03-08T08:25:18.984Z,995.88
2018-03-08T08:26:18.994Z,995.90
2018-03-08T08:27:19.006Z,995.93
2018-03-08T08:28:19.017Z,995.93
2018-03-08T08:29:19.041Z,995.89
2018-03-08T08:30:19.040Z,995.91
2018-03-08T08:31:19.058Z,995.95
2018-03-08T08:32:19.066Z,995.96
2018-03-08T08:33:19.078Z,995.98
2018-03-08T08:34:19.090Z,995.95
2018-03-08T08:35:19.104Z,995.92
2018-03-08T08:36:19.115Z,995.92
2018-03-08T08:37:19.129Z,995.92
2018-03-08T08:38:19.141Z,995.90
2018-03-08T08:39:19.153Z,995.93
2018-03-08T08:40:19.164Z,995.92
2018-03-08T08:41:19.182Z,995.94
2018-03-08T08:42:19.190Z,995.97
2018-03-08T08:43:19.204Z,995.94
2018-03-08T08:44:19.218Z,995.94
2018-03-08T08:45:19.248Z,995.92
2018-03-08T08:46:19.302Z,995.95
2018-03-08T08:47:19.261Z,995.94
2018-03-08T08:48:19.277Z,995.88
2018-03-08T08:49:19.280Z,995.89
2018-03-08T08:50:19.294Z,995.88
2018-03-08T08:51:19.308Z,995.85
2018-03-08T08:52:19.317Z,995.82
2018-03-08T08:53:19.331Z,995.82
2018-03-08T08:54:19.348Z,995.77
2018-03-08T08:55:19.359Z,995.74
2018-03-08T08:56:19.371Z,995.81
2018-03-08T08:57:19.382Z,995.77
2018-03-08T08:58:19.398Z,995.78
2018-03-08T08:59:19.410Z,995.79
2018-03-08T09:00:19.423Z,995.79
2018-03-08T09:01:19.434Z,995.80
2018-03-08T09:02:19.448Z,995.73
2018-03-08T09:03:19.464Z,995.76
2018-03-08T09:04:19.474Z,995.70
2018-03-08T09:05:19.485Z,995.72
2018-03-08T09:06:19.503Z,995.68
2018-03-08T09:07:19.512Z,995.59
2018-03-08T09:08:19.526Z,995.62
2018-03-08T09:09:19.539Z,995.63
2018-03-08T09:10:19.557Z,995.62
2018-03-08T09:11:19.655Z,995.66
2018-03-08T09:13:19.596Z,995.69
2018-03-08T09:14:19.608Z,995.73
2018-03-08T09:15:19.642Z,995.70
2018-03-08T09:16:19.665Z,995.74
2018-03-08T09:17:19.644Z,995.73
2018-03-08T09:18:19.664Z,995.66
2018-03-08T09:19:20.606Z,995.68
2018-03-08T09:20:19.690Z,995.67
2018-03-08T09:21:20.113Z,995.64
2018-03-08T09:22:19.708Z,995.63
2018-03-08T09:23:19.726Z,995.61
2018-03-08T09:24:19.735Z,995.56
2018-03-08T09:25:19.756Z,995.56
2018-03-08T09:26:19.781Z,995.54
2018-03-08T09:27:19.776Z,995.55
2018-03-08T09:28:19.786Z,995.48
2018-03-08T09:29:19.801Z,995.46
2018-03-08T09:30:19.815Z,995.49
2018-03-08T09:31:19.855Z,995.51
2018-03-08T09:32:19.937Z,995.42
2018-03-08T09:33:19.857Z,995.41
2018-03-08T09:34:19.869Z,995.40
2018-03-08T09:35:19.904Z,995.40
2018-03-08T09:36:19.895Z,995.39
2018-03-08T09:37:19.907Z,995.38
2018-03-08T09:38:20.096Z,995.32
2018-03-08T09:39:19.937Z,995.42
2018-03-08T09:40:19.952Z,995.34
2018-03-08T09:41:19.969Z,995.38
2018-03-08T09:42:19.978Z,995.40
2018-03-08T09:43:19.993Z,995.40
2018-03-08T09:44:20.009Z,995.40
2018-03-08T09:45:20.026Z,995.45
2018-03-08T09:46:20.284Z,995.47
2018-03-08T09:47:20.050Z,995.39
2018-03-08T09:48:20.058Z,995.40
2018-03-08T09:49:20.074Z,995.40
2018-03-08T09:50:20.088Z,995.33
2018-03-08T09:51:20.102Z,995.36
2018-03-08T09:52:20.120Z,995.36
2018-03-08T09:53:20.130Z,995.40
2018-03-08T09:54:20.142Z,995.28
2018-03-08T09:55:20.160Z,995.23
2018-03-08T09:56:20.174Z,995.25
2018-03-08T09:57:20.184Z,995.25
2018-03-08T09:58:20.202Z,995.28
2018-03-08T09:59:20.216Z,995.26
2018-03-08T10:00:20.233Z,995.29
2018-03-08T10:01:20.265Z,995.29
2018-03-08T10:02:20.256Z,995.16
2018-03-08T10:03:20.281Z,995.20
2018-03-08T10:04:20.320Z,995.17
2018-03-08T10:05:20.293Z,995.15
2018-03-08T10:06:20.323Z,995.19
2018-03-08T10:07:20.329Z,995.11
2018-03-08T10:08:20.345Z,995.10
2018-03-08T10:09:20.362Z,995.10
2018-03-08T10:10:20.366Z,995.16
2018-03-08T10:11:20.394Z,995.09
2018-03-08T10:12:20.404Z,995.10
2018-03-08T10:13:20.404Z,995.07
2018-03-08T10:14:20.431Z,995.15
2018-03-08T10:15:20.444Z,995.14
2018-03-08T10:16:20.636Z,995.09
2018-03-08T10:17:20.470Z,995.10
2018-03-08T10:18:20.500Z,994.99
2018-03-08T10:19:20.520Z,995.06
2018-03-08T10:20:20.567Z,995.02
2018-03-08T10:21:44.182Z,995.04
2018-03-08T10:22:20.552Z,994.96
2018-03-08T10:23:20.559Z,994.94
2018-03-08T10:24:20.894Z,994.96
2018-03-08T10:25:20.580Z,995.01
2018-03-08T10:26:20.593Z,994.97
2018-03-08T10:27:20.705Z,994.97
2018-03-08T10:28:20.623Z,994.96
2018-03-08T10:29:20.765Z,994.95
2018-03-08T10:30:20.646Z,994.94
2018-03-08T10:31:20.670Z,994.92
2018-03-08T10:32:20.674Z,994.92
2018-03-08T10:33:20.703Z,994.88
2018-03-08T10:34:20.707Z,994.88
2018-03-08T10:35:20.717Z,994.84
2018-03-08T10:36:20.730Z,994.73
2018-03-08T10:37:20.754Z,994.78
2018-03-08T10:38:20.761Z,994.72
2018-03-08T10:40:20.793Z,994.76
2018-03-08T10:41:20.803Z,994.77
2018-03-08T10:42:20.822Z,994.73
2018-03-08T10:43:21.235Z,994.75
2018-03-08T10:44:23.573Z,994.74
2018-03-08T10:45:20.864Z,994.78
2018-03-08T10:46:20.876Z,994.71
2018-03-08T10:47:20.889Z,994.67
2018-03-08T10:48:20.909Z,994.72
2018-03-08T10:49:20.918Z,994.68
2018-03-08T10:50:20.990Z,994.73
2018-03-08T10:51:20.951Z,994.72
2018-03-08T10:52:20.984Z,994.70
2018-03-08T10:53:20.976Z,994.74
2018-03-08T10:54:20.995Z,994.71
2018-03-08T10:55:21.013Z,994.75
2018-03-08T10:56:21.020Z,994.71
2018-03-08T10:57:21.034Z,994.73
2018-03-08T10:58:21.069Z,994.70
2018-03-08T10:59:21.063Z,994.68
2018-03-08T11:00:21.102Z,994.70
2018-03-08T11:01:21.100Z,994.74
2018-03-08T11:02:21.110Z,994.70
2018-03-08T11:03:21.133Z,994.78
2018-03-08T11:04:21.135Z,994.70
2018-03-08T11:05:21.155Z,994.77
2018-03-08T11:06:21.228Z,994.72
2018-03-08T11:07:21.180Z,994.70
2018-03-08T11:08:21.195Z,994.73
2018-03-08T11:09:21.208Z,994.61
2018-03-08T11:10:21.233Z,994.71
2018-03-08T11:11:21.237Z,994.75
2018-03-08T11:12:21.261Z,994.75
2018-03-08T11:13:21.270Z,994.76
2018-03-08T11:14:21.282Z,994.72
2018-03-08T11:15:22.348Z,994.73
2018-03-08T11:16:21.322Z,994.72
2018-03-08T11:17:21.337Z,994.75
2018-03-08T11:18:21.338Z,994.73
2018-03-08T11:19:21.352Z,994.69
2018-03-08T11:20:21.373Z,994.68
2018-03-08T11:21:21.438Z,994.66
2018-03-08T11:22:21.401Z,994.68
2018-03-08T11:23:21.414Z,994.71
2018-03-08T11:24:21.428Z,994.71
2018-03-08T11:25:21.438Z,994.71
2018-03-08T11:26:21.505Z,994.67
2018-03-08T11:27:21.473Z,994.64
2018-03-08T11:28:21.515Z,994.60
2018-03-08T11:29:21.494Z,994.62
2018-03-08T11:30:21.533Z,994.58
2018-03-08T11:31:21.540Z,994.62
2018-03-08T11:32:21.547Z,994.57
2018-03-08T11:33:21.553Z,994.68
2018-03-08T11:34:21.574Z,994.57
2018-03-08T11:35:21.582Z,994.56
2018-03-08T11:36:21.602Z,994.57
2018-03-08T11:37:21.613Z,994.58
2018-03-08T11:38:21.632Z,994.52
2018-03-08T11:39:21.644Z,994.50
2018-03-08T11:40:21.658Z,994.47
2018-03-08T11:41:23.094Z,994.45
2018-03-08T11:42:21.685Z,994.39
2018-03-08T11:43:21.709Z,994.38
2018-03-08T11:44:21.714Z,994.35
2018-03-08T11:45:21.724Z,994.37
2018-03-08T11:46:21.740Z,994.33
2018-03-08T11:47:21.757Z,994.30
2018-03-08T11:48:21.765Z,994.30
2018-03-08T11:49:21.781Z,994.25
2018-03-08T11:50:21.884Z,994.22
2018-03-08T11:51:21.813Z,994.20
2018-03-08T11:52:21.825Z,994.15
2018-03-08T11:53:21.838Z,994.12
2018-03-08T11:54:21.863Z,994.19
2018-03-08T11:55:21.982Z,994.21
2018-03-08T11:56:21.884Z,994.14
2018-03-08T11:57:21.896Z,994.11
2018-03-08T11:58:21.985Z,994.10
2018-03-08T11:59:21.952Z,994.15
2018-03-08T12:00:21.943Z,994.17
2018-03-08T12:01:22.388Z,994.10
2018-03-08T12:02:22.005Z,994.14
2018-03-08T12:03:22.107Z,994.05
2018-03-08T12:04:22.008Z,994.03
2018-03-08T12:05:22.015Z,994.10
2018-03-08T12:06:22.172Z,994.06
2018-03-08T12:07:22.047Z,994.05
2018-03-08T12:08:22.207Z,994.04
2018-03-08T12:09:22.072Z,993.91
2018-03-08T12:10:22.090Z,994.00
2018-03-08T12:11:22.103Z,993.88
2018-03-08T12:12:22.162Z,993.92
2018-03-08T12:13:22.133Z,993.88
2018-03-08T12:14:22.146Z,993.90
2018-03-08T12:15:22.158Z,993.96
2018-03-08T12:16:22.174Z,993.97
2018-03-08T12:17:22.191Z,994.01
2018-03-08T12:18:22.216Z,993.97
2018-03-08T12:19:22.217Z,993.92
2018-03-08T12:20:22.246Z,993.81
2018-03-08T12:21:22.247Z,993.81
2018-03-08T12:22:22.263Z,993.80
2018-03-08T12:23:22.397Z,993.78
2018-03-08T12:24:22.334Z,993.76
2018-03-08T12:25:22.318Z,993.79
2018-03-08T12:26:22.323Z,993.77
2018-03-08T12:27:22.337Z,993.73
2018-03-08T12:28:22.362Z,993.76
2018-03-08T12:29:22.365Z,993.74
2018-03-08T12:30:22.383Z,993.69
2018-03-08T12:31:22.394Z,993.68